createdAt,value
2022-10-30T00:01:24.908Z,26.80
2022-10-30T00:03:53.551Z,26.60
2022-10-30T00:06:25.222Z,26.60
2022-10-30T00:08:53.738Z,26.50
2022-10-30T00:11:22.730Z,26.60
2022-10-30T00:13:51.439Z,26.50
2022-10-30T00:16:20.134Z,26.50
2022-10-30T00:18:48.831Z,26.60
2022-10-30T00:21:18.439Z,26.70
2022-10-30T00:23:50.514Z,26.70
2022-10-30T00:26:21.616Z,26.80
2022-10-30T00:28:51.724Z,26.90
2022-10-30T00:31:20.894Z,26.90
2022-10-30T00:33:51.917Z,26.90
2022-10-30T00:36:21.011Z,26.90
2022-10-30T00:38:51.432Z,26.90
2022-10-30T00:41:25.905Z,27.00
2022-10-30T00:43:57.169Z,27.20
2022-10-30T00:46:32.170Z,27.20
2022-10-30T00:49:07.504Z,27.20
2022-10-30T00:51:38.329Z,27.10
2022-10-30T00:54:10.607Z,27.10
2022-10-30T00:56:40.010Z,27.20
2022-10-30T00:59:14.118Z,27.10
2022-10-30T01:01:47.526Z,27.10
2022-10-30T01:04:18.110Z,27.10
2022-10-30T01:06:52.720Z,27.10
2022-10-30T01:09:24.099Z,27.00
2022-10-30T01:11:53.247Z,27.00
2022-10-30T01:14:23.066Z,27.00
2022-10-30T01:17:24.410Z,27.00
2022-10-30T01:20:17.655Z,27.00
2022-10-30T01:23:01.032Z,26.90
2022-10-30T01:25:54.319Z,26.90
2022-10-30T01:28:42.295Z,26.80
2022-10-30T01:31:31.325Z,26.90
2022-10-30T01:34:18.284Z,26.90
2022-10-30T01:36:55.938Z,27.00
2022-10-30T01:39:30.073Z,27.00
2022-10-30T01:42:00.058Z,27.00
2022-10-30T01:44:32.756Z,27.00
2022-10-30T01:47:18.814Z,27.10
2022-10-30T01:50:17.870Z,27.10
2022-10-30T01:52:59.338Z,27.00
2022-10-30T01:55:41.129Z,27.10
2022-10-30T01:58:21.090Z,27.10
2022-10-30T02:00:59.987Z,27.10
2022-10-30T02:03:29.388Z,27.10
2022-10-30T02:05:58.230Z,27.00
2022-10-30T02:08:28.340Z,27.00
2022-10-30T02:10:57.819Z,27.10
2022-10-30T02:13:40.686Z,27.00
2022-10-30T02:16:10.914Z,27.00
2022-10-30T02:18:40.322Z,27.10
2022-10-30T02:21:10.559Z,27.10
2022-10-30T02:23:40.997Z,26.80
2022-10-30T02:26:09.592Z,26.70
2022-10-30T02:28:38.097Z,26.70
2022-10-30T02:31:07.727Z,26.70
2022-10-30T02:33:36.553Z,26.90
2022-10-30T02:36:07.435Z,26.90
2022-10-30T02:38:37.580Z,26.90
2022-10-30T02:41:06.566Z,26.90
2022-10-30T02:43:35.256Z,27.00
2022-10-30T02:46:04.030Z,27.00
2022-10-30T02:48:32.985Z,26.90
2022-10-30T02:51:01.675Z,26.90
2022-10-30T02:53:32.206Z,27.10
2022-10-30T02:56:07.563Z,27.00
2022-10-30T02:58:36.506Z,27.10
2022-10-30T03:01:09.600Z,27.10
2022-10-30T03:03:39.645Z,27.20
2022-10-30T03:06:11.838Z,27.20
2022-10-30T03:08:40.624Z,27.10
2022-10-30T03:11:14.995Z,27.20
2022-10-30T03:13:46.077Z,27.10
2022-10-30T03:16:18.271Z,27.10
2022-10-30T03:18:48.280Z,27.10
2022-10-30T03:21:20.857Z,27.10
2022-10-30T03:23:51.097Z,27.10
2022-10-30T03:26:21.939Z,27.10
2022-10-30T03:28:53.788Z,27.10
2022-10-30T03:31:22.997Z,27.10
2022-10-30T03:34:09.271Z,27.20
2022-10-30T03:36:37.843Z,27.20
2022-10-30T03:39:06.796Z,27.20
2022-10-30T03:41:37.627Z,27.20
2022-10-30T03:44:06.331Z,27.30
2022-10-30T03:46:35.865Z,27.30
2022-10-30T03:49:22.437Z,27.30
2022-10-30T03:51:50.972Z,27.30
2022-10-30T03:54:19.600Z,27.20
2022-10-30T03:56:49.739Z,27.20
2022-10-30T03:59:19.363Z,27.20
2022-10-30T04:02:04.239Z,27.20
2022-10-30T04:04:32.957Z,27.10
2022-10-30T04:07:01.985Z,27.10
2022-10-30T04:09:30.704Z,27.20
2022-10-30T04:12:00.648Z,27.10
2022-10-30T04:14:29.352Z,27.10
2022-10-30T04:16:58.032Z,27.10
2022-10-30T04:19:26.970Z,27.00
2022-10-30T04:21:55.726Z,27.00
2022-10-30T04:24:24.447Z,27.00
2022-10-30T04:26:56.976Z,26.90
2022-10-30T04:29:26.876Z,27.00
2022-10-30T04:31:55.475Z,27.00
2022-10-30T04:34:24.940Z,27.00
2022-10-30T04:36:53.668Z,26.90
2022-10-30T04:39:22.317Z,26.90
2022-10-30T04:41:55.074Z,27.00
2022-10-30T04:44:33.849Z,26.90
2022-10-30T04:47:02.589Z,26.90
2022-10-30T04:49:31.104Z,26.90
2022-10-30T04:51:59.646Z,26.90
2022-10-30T04:54:28.759Z,26.80
2022-10-30T04:56:57.825Z,26.80
2022-10-30T04:59:26.540Z,26.80
2022-10-30T05:01:58.313Z,26.80
2022-10-30T05:04:26.906Z,26.80
2022-10-30T05:06:55.668Z,26.80
2022-10-30T05:09:24.283Z,26.80
2022-10-30T05:11:54.926Z,26.80
2022-10-30T05:14:31.368Z,26.80
2022-10-30T05:17:01.569Z,26.80
2022-10-30T05:19:30.101Z,26.90
2022-10-30T05:21:59.293Z,26.80
2022-10-30T05:24:27.919Z,26.80
2022-10-30T05:26:59.255Z,26.80
2022-10-30T05:29:28.107Z,26.90
2022-10-30T05:31:56.623Z,27.00
2022-10-30T05:35:01.780Z,27.00
2022-10-30T05:37:30.623Z,26.90
2022-10-30T05:39:59.378Z,27.00
2022-10-30T05:42:30.912Z,27.10
2022-10-30T05:45:02.948Z,27.20
2022-10-30T05:47:36.102Z,27.20
2022-10-30T05:50:07.945Z,27.10
2022-10-30T05:52:37.835Z,27.10
2022-10-30T05:55:07.477Z,27.10
2022-10-30T05:58:01.757Z,27.00
2022-10-30T06:00:33.778Z,27.00
2022-10-30T06:03:03.662Z,27.10
2022-10-30T06:05:37.694Z,27.10
2022-10-30T06:08:08.758Z,27.20
2022-10-30T06:10:37.864Z,27.20
2022-10-30T06:13:12.064Z,27.20
2022-10-30T06:15:46.882Z,27.20
2022-10-30T06:18:15.780Z,27.20
2022-10-30T06:20:51.532Z,27.20
2022-10-30T06:23:38.556Z,27.20
2022-10-30T06:26:15.285Z,27.10
2022-10-30T06:28:46.656Z,27.10
2022-10-30T06:31:16.577Z,27.10
2022-10-30T06:33:45.207Z,27.10
2022-10-30T06:36:17.521Z,27.10
2022-10-30T06:38:46.262Z,27.10
2022-10-30T06:41:18.198Z,27.10
2022-10-30T06:44:00.704Z,27.20
2022-10-30T06:46:33.699Z,27.20
2022-10-30T06:49:03.039Z,27.40
2022-10-30T06:51:34.589Z,27.20
2022-10-30T06:54:03.370Z,27.30
2022-10-30T06:56:41.137Z,27.30
2022-10-30T06:59:28.452Z,27.30
2022-10-30T07:02:17.892Z,27.20
2022-10-30T07:04:51.225Z,27.20
2022-10-30T07:07:21.342Z,26.70
2022-10-30T07:09:50.011Z,26.90
2022-10-30T07:12:22.788Z,27.00
2022-10-30T07:14:57.502Z,26.60
2022-10-30T07:17:58.267Z,26.60
2022-10-30T07:20:29.664Z,26.50
2022-10-30T07:23:00.624Z,26.60
2022-10-30T07:25:29.329Z,26.70
2022-10-30T07:28:07.336Z,26.50
2022-10-30T07:30:39.800Z,26.30
2022-10-30T07:33:31.506Z,26.50
2022-10-30T07:36:04.966Z,26.70
2022-10-30T07:38:54.748Z,26.70
2022-10-30T07:41:48.920Z,26.70
2022-10-30T07:44:37.180Z,26.60
2022-10-30T07:47:28.204Z,26.70
2022-10-30T07:50:12.223Z,26.90
2022-10-30T07:52:41.266Z,27.20
2022-10-30T07:55:13.050Z,27.20
2022-10-30T07:58:01.827Z,27.40
2022-10-30T08:01:09.138Z,27.60
2022-10-30T08:03:38.720Z,27.60
2022-10-30T08:06:13.615Z,27.80
2022-10-30T08:08:43.598Z,27.90
2022-10-30T08:11:42.916Z,28.00
2022-10-30T08:14:11.800Z,28.00
2022-10-30T08:16:40.626Z,27.90
2022-10-30T08:19:10.580Z,27.90
2022-10-30T08:21:39.474Z,27.30
2022-10-30T08:24:12.764Z,27.40
2022-10-30T08:26:46.867Z,27.60
2022-10-30T08:29:15.580Z,27.60
2022-10-30T08:31:49.249Z,27.70
2022-10-30T08:34:23.785Z,27.20
2022-10-30T08:36:56.589Z,26.60
2022-10-30T08:39:26.144Z,26.50
2022-10-30T08:42:00.788Z,26.10
2022-10-30T08:44:35.732Z,25.20
2022-10-30T08:47:22.617Z,25.30
2022-10-30T08:49:52.075Z,25.40
2022-10-30T08:52:24.019Z,25.90
2022-10-30T08:54:57.295Z,26.10
2022-10-30T08:57:30.023Z,26.10
2022-10-30T08:59:59.396Z,25.90
2022-10-30T09:02:54.232Z,25.40
2022-10-30T09:06:01.610Z,25.40
2022-10-30T09:08:48.688Z,25.10
2022-10-30T09:11:39.538Z,24.90
2022-10-30T09:14:09.861Z,25.10
2022-10-30T09:16:38.487Z,25.30
2022-10-30T09:19:07.123Z,25.40
2022-10-30T09:21:35.880Z,25.80
2022-10-30T09:24:08.040Z,26.10
2022-10-30T09:26:36.973Z,26.20
2022-10-30T09:29:20.581Z,26.40
2022-10-30T09:32:10.057Z,26.50
2022-10-30T09:34:58.974Z,26.40
2022-10-30T09:37:30.175Z,26.40
2022-10-30T09:40:01.522Z,26.10
2022-10-30T09:42:45.755Z,26.20
2022-10-30T09:45:48.800Z,26.10
2022-10-30T09:48:47.474Z,26.40
2022-10-30T09:51:53.605Z,26.70
2022-10-30T09:54:49.738Z,27.00
2022-10-30T09:57:30.384Z,26.50
2022-10-30T10:00:11.295Z,25.80
2022-10-30T10:03:04.025Z,26.30
2022-10-30T10:05:49.471Z,26.40
2022-10-30T10:08:45.507Z,26.50
2022-10-30T10:11:54.862Z,26.70
2022-10-30T10:14:29.151Z,27.00
2022-10-30T10:17:02.900Z,26.70
2022-10-30T10:19:39.920Z,26.50
2022-10-30T10:22:22.151Z,26.30
2022-10-30T10:24:52.270Z,25.90
2022-10-30T10:27:40.911Z,26.10
2022-10-30T10:30:16.825Z,26.50
2022-10-30T10:33:11.429Z,26.90
2022-10-30T10:36:05.064Z,27.20
2022-10-30T10:38:58.460Z,27.50
2022-10-30T10:41:53.415Z,27.90
2022-10-30T10:44:39.862Z,27.40
2022-10-30T10:47:34.001Z,27.50
2022-10-30T10:50:20.804Z,27.70
2022-10-30T10:52:58.685Z,27.60
2022-10-30T10:55:36.359Z,26.70
2022-10-30T10:58:15.863Z,26.50
2022-10-30T11:00:46.993Z,26.70
2022-10-30T11:03:21.627Z,26.90
2022-10-30T11:05:58.472Z,26.50
2022-10-30T11:08:30.998Z,26.80
2022-10-30T11:11:03.164Z,26.20
2022-10-30T11:13:36.721Z,26.30
2022-10-30T11:16:22.752Z,26.10
2022-10-30T11:18:59.173Z,26.50
2022-10-30T11:21:31.918Z,26.80
2022-10-30T11:24:02.048Z,27.30
2022-10-30T11:26:35.940Z,26.80
2022-10-30T11:29:12.728Z,26.50
2022-10-30T11:31:44.378Z,26.50
2022-10-30T11:34:31.813Z,26.30
2022-10-30T11:37:00.833Z,26.30
2022-10-30T11:39:34.195Z,26.50
2022-10-30T11:42:15.868Z,26.40
2022-10-30T11:44:49.332Z,26.20
2022-10-30T11:47:21.840Z,26.20
2022-10-30T11:49:54.826Z,25.50
2022-10-30T11:52:27.521Z,25.50
2022-10-30T11:55:01.923Z,25.90
2022-10-30T11:57:38.764Z,26.00
2022-10-30T12:00:17.687Z,26.20
2022-10-30T12:02:51.472Z,25.60
2022-10-30T12:05:41.639Z,25.70
2022-10-30T12:08:22.340Z,26.20
2022-10-30T12:11:06.115Z,25.60
2022-10-30T12:13:40.540Z,25.40
2022-10-30T12:16:16.838Z,25.70
2022-10-30T12:19:01.848Z,26.20
2022-10-30T12:21:37.955Z,26.50
2022-10-30T12:24:18.473Z,26.20
2022-10-30T12:26:54.200Z,25.70
2022-10-30T12:30:06.666Z,25.40
2022-10-30T12:32:39.625Z,25.00
2022-10-30T12:35:22.979Z,25.80
2022-10-30T12:37:55.841Z,26.10
2022-10-30T12:40:31.653Z,26.10
2022-10-30T12:43:17.341Z,26.20
2022-10-30T12:45:49.552Z,26.40
2022-10-30T12:48:29.119Z,26.60
2022-10-30T12:51:18.316Z,26.90
2022-10-30T12:54:00.525Z,26.90
2022-10-30T12:56:36.688Z,27.10
2022-10-30T12:59:28.476Z,27.10
2022-10-30T13:02:05.823Z,27.10
2022-10-30T13:04:43.297Z,27.30
2022-10-30T13:07:24.418Z,26.80
2022-10-30T13:10:13.314Z,27.20
2022-10-30T13:12:52.335Z,27.20
2022-10-30T13:15:27.986Z,27.40
2022-10-30T13:18:00.306Z,27.60
2022-10-30T13:20:32.360Z,27.80
2022-10-30T13:23:11.847Z,28.00
2022-10-30T13:25:59.680Z,28.20
2022-10-30T13:28:37.270Z,28.30
2022-10-30T13:31:22.781Z,28.10
2022-10-30T13:34:04.159Z,28.20
2022-10-30T13:36:46.931Z,28.30
2022-10-30T13:39:32.123Z,28.20
2022-10-30T13:42:26.486Z,28.40
2022-10-30T13:45:13.923Z,28.60
2022-10-30T13:47:57.291Z,28.60
2022-10-30T13:51:07.769Z,28.50
2022-10-30T13:53:42.049Z,28.60
2022-10-30T13:56:17.508Z,28.70
2022-10-30T13:59:00.201Z,28.90
2022-10-30T14:01:37.156Z,28.80
2022-10-30T14:04:16.000Z,28.90
2022-10-30T14:06:57.331Z,28.80
2022-10-30T14:09:43.299Z,28.80
2022-10-30T14:12:51.018Z,28.80
2022-10-30T14:15:32.889Z,28.80
2022-10-30T14:18:47.197Z,28.80
2022-10-30T14:21:40.960Z,28.80
2022-10-30T14:24:21.161Z,28.80
2022-10-30T14:26:58.964Z,28.70
2022-10-30T14:29:52.200Z,28.70
2022-10-30T14:32:41.356Z,28.70
2022-10-30T14:35:35.422Z,28.60
2022-10-30T14:38:29.054Z,28.60
2022-10-30T14:41:41.570Z,28.60
2022-10-30T14:44:46.156Z,28.60
2022-10-30T14:47:55.353Z,28.50
2022-10-30T14:50:47.842Z,28.50
2022-10-30T14:53:42.347Z,28.60
2022-10-30T14:56:28.303Z,28.50
2022-10-30T14:59:22.434Z,28.50
2022-10-30T15:02:20.420Z,28.30
2022-10-30T15:05:26.107Z,28.20
2022-10-30T15:08:11.304Z,28.20
2022-10-30T15:11:02.158Z,28.20
2022-10-30T15:13:31.410Z,28.10
2022-10-30T15:16:03.130Z,28.10
2022-10-30T15:18:32.967Z,28.10
2022-10-30T15:21:08.741Z,28.00
2022-10-30T15:23:38.550Z,28.00
2022-10-30T15:26:21.552Z,28.00
2022-10-30T15:28:53.419Z,28.00
2022-10-30T15:31:25.500Z,27.90
2022-10-30T15:33:55.627Z,27.80
2022-10-30T15:36:28.544Z,27.80
2022-10-30T15:39:11.184Z,27.70
2022-10-30T15:41:47.942Z,27.70
2022-10-30T15:44:21.084Z,27.70
2022-10-30T15:46:53.187Z,27.60
2022-10-30T15:49:32.232Z,27.50
2022-10-30T15:52:03.992Z,27.50
2022-10-30T15:54:34.781Z,27.70
2022-10-30T15:57:42.891Z,27.60
2022-10-30T16:00:00.959Z,27.50
2022-10-30T16:02:29.927Z,27.40
2022-10-30T16:04:59.192Z,27.40
2022-10-30T16:07:30.705Z,27.40
2022-10-30T16:10:01.722Z,27.30
2022-10-30T16:12:35.609Z,27.30
2022-10-30T16:15:10.038Z,27.30
2022-10-30T16:17:39.040Z,27.20
2022-10-30T16:20:11.006Z,27.20
2022-10-30T16:22:41.585Z,27.20
2022-10-30T16:25:12.920Z,27.20
2022-10-30T16:27:47.233Z,27.20
2022-10-30T16:30:17.780Z,27.20
2022-10-30T16:32:54.707Z,27.10
2022-10-30T16:35:25.455Z,27.10
2022-10-30T16:37:55.391Z,27.10
2022-10-30T16:40:28.560Z,27.10
2022-10-30T16:43:01.678Z,27.10
2022-10-30T16:45:51.697Z,27.00
2022-10-30T16:48:28.697Z,27.00
2022-10-30T16:51:05.415Z,27.00
2022-10-30T16:53:34.329Z,27.00
2022-10-30T16:56:04.129Z,27.00
2022-10-30T16:58:34.311Z,26.90
2022-10-30T17:01:07.798Z,26.90
2022-10-30T17:03:41.103Z,26.90
2022-10-30T17:06:29.010Z,26.90
2022-10-30T17:09:01.149Z,26.90
2022-10-30T17:11:39.970Z,26.90
2022-10-30T17:14:21.041Z,26.90
2022-10-30T17:16:59.602Z,26.90
2022-10-30T17:19:49.551Z,26.90
2022-10-30T17:22:22.201Z,26.80
2022-10-30T17:24:51.036Z,26.80
2022-10-30T17:27:47.535Z,26.70
2022-10-30T17:30:37.984Z,26.70
2022-10-30T17:33:27.015Z,26.70
2022-10-30T17:35:55.882Z,26.70
2022-10-30T17:38:24.484Z,26.60
2022-10-30T17:40:53.356Z,26.60
2022-10-30T17:43:25.715Z,26.50
2022-10-30T17:45:55.953Z,26.50
2022-10-30T17:48:28.249Z,26.50
2022-10-30T17:50:57.266Z,26.40
2022-10-30T17:53:29.240Z,26.30
2022-10-30T17:56:04.611Z,26.30
2022-10-30T17:58:33.488Z,26.30
2022-10-30T18:01:03.620Z,26.20
2022-10-30T18:03:32.377Z,26.20
2022-10-30T18:06:03.255Z,26.20
2022-10-30T18:08:31.896Z,26.10
2022-10-30T18:11:00.635Z,26.10
2022-10-30T18:13:29.260Z,26.10
2022-10-30T18:15:59.899Z,26.10
2022-10-30T18:18:29.825Z,26.10
2022-10-30T18:20:58.681Z,26.10
2022-10-30T18:26:20.479Z,26.00
2022-10-30T18:28:49.859Z,26.00
2022-10-30T18:31:22.520Z,25.90
2022-10-30T18:33:53.053Z,25.90
2022-10-30T18:36:24.506Z,25.90
2022-10-30T18:38:54.565Z,25.80
2022-10-30T18:41:30.815Z,25.80
2022-10-30T18:43:59.588Z,25.70
2022-10-30T18:46:30.624Z,25.70
2022-10-30T18:49:00.701Z,25.70
2022-10-30T18:51:29.918Z,25.70
2022-10-30T18:53:58.518Z,25.70
2022-10-30T18:56:29.986Z,25.60
2022-10-30T18:59:02.017Z,25.70
2022-10-30T19:01:32.781Z,25.60
2022-10-30T19:04:04.477Z,25.70
2022-10-30T19:06:34.453Z,25.60
2022-10-30T19:09:03.409Z,25.70
2022-10-30T19:11:32.554Z,25.70
2022-10-30T19:14:01.254Z,25.60
2022-10-30T19:16:30.314Z,25.60
2022-10-30T19:18:58.801Z,25.60
2022-10-30T19:21:31.994Z,25.60
2022-10-30T19:24:03.703Z,25.60
2022-10-30T19:26:32.243Z,25.60
2022-10-30T19:29:01.015Z,25.50
2022-10-30T19:31:29.534Z,25.50
2022-10-30T19:33:58.395Z,25.50
2022-10-30T19:36:31.889Z,25.50
2022-10-30T19:39:07.483Z,25.40
2022-10-30T19:41:38.750Z,25.50
2022-10-30T19:44:07.980Z,25.50
2022-10-30T19:46:37.912Z,25.40
2022-10-30T19:49:17.997Z,25.40
2022-10-30T19:51:48.365Z,25.40
2022-10-30T19:54:17.095Z,25.40
2022-10-30T19:56:45.932Z,25.40
2022-10-30T19:59:16.317Z,25.40
2022-10-30T20:01:45.433Z,25.30
2022-10-30T20:04:14.121Z,25.30
2022-10-30T20:06:42.973Z,25.30
2022-10-30T20:09:14.099Z,25.30
2022-10-30T20:11:42.887Z,25.20
2022-10-30T20:14:11.417Z,25.20
2022-10-30T20:16:40.378Z,25.20
2022-10-30T20:19:30.264Z,25.10
2022-10-30T20:21:59.009Z,25.10
2022-10-30T20:24:28.930Z,25.10
2022-10-30T20:26:58.396Z,25.10
2022-10-30T20:29:27.329Z,25.10
2022-10-30T20:31:56.067Z,25.10
2022-10-30T20:34:25.010Z,25.10
2022-10-30T20:36:53.531Z,25.00
2022-10-30T20:39:22.177Z,25.00
2022-10-30T20:41:52.284Z,25.00
2022-10-30T20:44:20.793Z,25.00
2022-10-30T20:46:49.383Z,25.00
2022-10-30T20:49:18.592Z,24.90
2022-10-30T20:51:48.623Z,24.90
2022-10-30T20:54:18.124Z,24.90
2022-10-30T20:56:46.766Z,24.80
2022-10-30T20:59:16.688Z,24.80
2022-10-30T21:01:45.592Z,24.80
2022-10-30T21:04:14.562Z,24.70
2022-10-30T21:06:43.156Z,24.70
2022-10-30T21:09:11.909Z,24.70
2022-10-30T21:11:40.698Z,24.70
2022-10-30T21:14:09.412Z,24.60
2022-10-30T21:16:39.540Z,24.60
2022-10-30T21:19:08.048Z,24.60
2022-10-30T21:21:36.606Z,24.60
2022-10-30T21:24:05.771Z,24.50
2022-10-30T21:26:35.049Z,24.60
2022-10-30T21:29:03.774Z,24.60
2022-10-30T21:31:32.919Z,24.50
2022-10-30T21:34:02.763Z,24.60
2022-10-30T21:36:31.354Z,24.50
2022-10-30T21:39:00.413Z,24.50
2022-10-30T21:41:29.175Z,24.50
2022-10-30T21:44:00.166Z,24.50
2022-10-30T21:46:31.980Z,24.50
2022-10-30T21:49:08.143Z,24.50
2022-10-30T21:51:36.884Z,24.50
2022-10-30T21:54:05.551Z,24.50
2022-10-30T21:56:36.061Z,24.50
2022-10-30T21:59:06.855Z,24.50
2022-10-30T22:01:38.336Z,24.50
2022-10-30T22:04:11.589Z,24.40
2022-10-30T22:06:42.583Z,24.30
2022-10-30T22:09:15.768Z,24.30
2022-10-30T22:11:44.779Z,24.30
2022-10-30T22:14:13.705Z,24.30
2022-10-30T22:16:42.295Z,24.20
2022-10-30T22:19:12.835Z,24.20
2022-10-30T22:21:41.502Z,24.10
2022-10-30T22:24:10.703Z,24.10
2022-10-30T22:26:39.334Z,24.10
2022-10-30T22:29:08.089Z,24.10
2022-10-30T22:31:36.704Z,24.10
2022-10-30T22:34:05.149Z,24.10
2022-10-30T22:36:35.524Z,24.00
2022-10-30T22:39:09.836Z,24.00
2022-10-30T22:41:38.808Z,24.00
2022-10-30T22:44:09.250Z,24.00
2022-10-30T22:46:38.484Z,24.00
2022-10-30T22:49:08.226Z,24.00
2022-10-30T22:51:40.648Z,24.00
2022-10-30T22:54:13.133Z,23.90
2022-10-30T22:56:42.591Z,23.90
2022-10-30T22:59:14.294Z,23.90
2022-10-30T23:01:43.901Z,23.90
2022-10-30T23:04:15.443Z,23.90
2022-10-30T23:06:45.639Z,23.90
2022-10-30T23:09:18.790Z,23.90
2022-10-30T23:11:47.485Z,23.90
2022-10-30T23:14:16.502Z,23.90
2022-10-30T23:16:45.010Z,23.90
2022-10-30T23:19:13.857Z,23.80
2022-10-30T23:21:42.403Z,23.80
2022-10-30T23:24:12.479Z,23.80
2022-10-30T23:26:41.011Z,23.80
2022-10-30T23:29:09.941Z,23.80
2022-10-30T23:31:40.992Z,23.80
2022-10-30T23:34:13.048Z,23.80
2022-10-30T23:36:42.767Z,23.80
2022-10-30T23:39:17.158Z,23.70
2022-10-30T23:41:46.679Z,23.70
2022-10-30T23:44:17.511Z,23.70
2022-10-30T23:46:46.234Z,23.70
2022-10-30T23:49:14.988Z,23.70
2022-10-30T23:51:43.469Z,23.70
2022-10-30T23:54:13.578Z,23.70
2022-10-30T23:56:42.221Z,23.70
2022-10-30T23:59:11.230Z,23.70
